sensor_id;sensor_type;location;lat;lon;timestamp;P1;durP1;ratioP1;P2;durP2;ratioP2
16472;SDS011;8347;52.486;13.432;2023-03-08T00:01:48;4.63;;;2.50;;
16472;SDS011;8347;52.486;13.432;2023-03-08T00:04:35;5.60;;;2.10;;
16472;SDS011;8347;52.486;13.432;2023-03-08T00:07:22;7.60;;;2.47;;
16472;SDS011;8347;52.486;13.432;2023-03-08T00:10:08;5.60;;;2.03;;
16472;SDS011;8347;52.486;13.432;2023-03-08T00:12:55;9.48;;;3.00;;
16472;SDS011;8347;52.486;13.432;2023-03-08T00:15:42;7.78;;;2.20;;
16472;SDS011;8347;52.486;13.432;2023-03-08T00:18:29;3.60;;;2.45;;
16472;SDS011;8347;52.486;13.432;2023-03-08T00:21:17;6.25;;;2.47;;
16472;SDS011;8347;52.486;13.432;2023-03-08T00:24:03;6.35;;;2.40;;
16472;SDS011;8347;52.486;13.432;2023-03-08T00:26:50;7.97;;;2.88;;
16472;SDS011;8347;52.486;13.432;2023-03-08T00:29:37;6.70;;;2.65;;
16472;SDS011;8347;52.486;13.432;2023-03-08T00:32:24;5.00;;;2.75;;
16472;SDS011;8347;52.486;13.432;2023-03-08T00:35:11;6.90;;;2.60;;
16472;SDS011;8347;52.486;13.432;2023-03-08T00:37:58;8.13;;;3.38;;
16472;SDS011;8347;52.486;13.432;2023-03-08T00:40:44;6.40;;;3.00;;
16472;SDS011;8347;52.486;13.432;2023-03-08T00:43:31;9.32;;;3.75;;
16472;SDS011;8347;52.486;13.432;2023-03-08T00:46:17;6.85;;;3.67;;
16472;SDS011;8347;52.486;13.432;2023-03-08T00:49:04;5.18;;;2.80;;
16472;SDS011;8347;52.486;13.432;2023-03-08T00:51:51;9.35;;;3.35;;
16472;SDS011;8347;52.486;13.432;2023-03-08T00:54:37;6.35;;;3.67;;
16472;SDS011;8347;52.486;13.432;2023-03-08T00:57:24;5.10;;;3.08;;
16472;SDS011;8347;52.486;13.432;2023-03-08T01:00:10;7.43;;;3.33;;
16472;SDS011;8347;52.486;13.432;2023-03-08T01:02:58;6.63;;;2.90;;
16472;SDS011;8347;52.486;13.432;2023-03-08T01:05:47;6.95;;;3.42;;
16472;SDS011;8347;52.486;13.432;2023-03-08T01:08:34;7.07;;;3.05;;
16472;SDS011;8347;52.486;13.432;2023-03-08T01:11:24;7.22;;;3.58;;
16472;SDS011;8347;52.486;13.432;2023-03-08T01:14:11;4.20;;;2.75;;
16472;SDS011;8347;52.486;13.432;2023-03-08T01:16:58;5.20;;;2.95;;
16472;SDS011;8347;52.486;13.432;2023-03-08T01:19:44;10.57;;;2.70;;
16472;SDS011;8347;52.486;13.432;2023-03-08T01:22:31;6.38;;;3.13;;
16472;SDS011;8347;52.486;13.432;2023-03-08T01:25:17;8.15;;;3.13;;
16472;SDS011;8347;52.486;13.432;2023-03-08T01:28:04;7.40;;;4.20;;
16472;SDS011;8347;52.486;13.432;2023-03-08T01:30:50;7.15;;;4.10;;
16472;SDS011;8347;52.486;13.432;2023-03-08T01:33:37;7.22;;;3.53;;
16472;SDS011;8347;52.486;13.432;2023-03-08T01:36:24;8.88;;;4.28;;
16472;SDS011;8347;52.486;13.432;2023-03-08T01:39:11;9.38;;;4.93;;
16472;SDS011;8347;52.486;13.432;2023-03-08T01:41:58;6.68;;;3.90;;
16472;SDS011;8347;52.486;13.432;2023-03-08T01:44:59;8.02;;;3.95;;
16472;SDS011;8347;52.486;13.432;2023-03-08T01:47:50;8.85;;;4.15;;
16472;SDS011;8347;52.486;13.432;2023-03-08T01:50:43;8.13;;;4.45;;
16472;SDS011;8347;52.486;13.432;2023-03-08T01:53:31;12.00;;;4.90;;
16472;SDS011;8347;52.486;13.432;2023-03-08T01:56:19;10.10;;;4.65;;
16472;SDS011;8347;52.486;13.432;2023-03-08T01:59:07;10.55;;;4.47;;
16472;SDS011;8347;52.486;13.432;2023-03-08T02:01:55;8.65;;;4.88;;
16472;SDS011;8347;52.486;13.432;2023-03-08T02:04:43;9.18;;;5.03;;
16472;SDS011;8347;52.486;13.432;2023-03-08T02:07:32;8.63;;;5.55;;
16472;SDS011;8347;52.486;13.432;2023-03-08T02:10:19;11.60;;;5.95;;
16472;SDS011;8347;52.486;13.432;2023-03-08T02:13:06;10.65;;;5.85;;
16472;SDS011;8347;52.486;13.432;2023-03-08T02:15:58;10.27;;;5.90;;
16472;SDS011;8347;52.486;13.432;2023-03-08T02:18:51;14.82;;;5.55;;
16472;SDS011;8347;52.486;13.432;2023-03-08T02:21:38;11.50;;;5.32;;
16472;SDS011;8347;52.486;13.432;2023-03-08T02:24:24;18.10;;;6.72;;
16472;SDS011;8347;52.486;13.432;2023-03-08T02:27:12;10.52;;;7.22;;
16472;SDS011;8347;52.486;13.432;2023-03-08T02:30:02;9.80;;;6.07;;
16472;SDS011;8347;52.486;13.432;2023-03-08T02:32:49;14.60;;;6.38;;
16472;SDS011;8347;52.486;13.432;2023-03-08T02:35:36;12.38;;;6.22;;
16472;SDS011;8347;52.486;13.432;2023-03-08T02:38:23;12.55;;;5.97;;
16472;SDS011;8347;52.486;13.432;2023-03-08T02:41:10;12.27;;;6.72;;
16472;SDS011;8347;52.486;13.432;2023-03-08T02:43:56;13.65;;;6.88;;
16472;SDS011;8347;52.486;13.432;2023-03-08T02:46:43;18.70;;;7.35;;
16472;SDS011;8347;52.486;13.432;2023-03-08T02:49:30;11.25;;;6.70;;
16472;SDS011;8347;52.486;13.432;2023-03-08T02:52:17;14.93;;;6.97;;
16472;SDS011;8347;52.486;13.432;2023-03-08T02:55:04;10.73;;;6.68;;
16472;SDS011;8347;52.486;13.432;2023-03-08T02:57:50;15.65;;;7.78;;
16472;SDS011;8347;52.486;13.432;2023-03-08T03:00:38;13.85;;;7.25;;
16472;SDS011;8347;52.486;13.432;2023-03-08T03:03:25;13.35;;;7.47;;
16472;SDS011;8347;52.486;13.432;2023-03-08T03:06:13;12.68;;;7.50;;
16472;SDS011;8347;52.486;13.432;2023-03-08T03:09:04;14.48;;;7.72;;
16472;SDS011;8347;52.486;13.432;2023-03-08T03:11:52;16.83;;;7.70;;
16472;SDS011;8347;52.486;13.432;2023-03-08T03:14:39;14.80;;;7.90;;
16472;SDS011;8347;52.486;13.432;2023-03-08T03:17:25;16.88;;;8.10;;
16472;SDS011;8347;52.486;13.432;2023-03-08T03:20:12;15.80;;;8.93;;
16472;SDS011;8347;52.486;13.432;2023-03-08T03:22:58;14.80;;;9.25;;
16472;SDS011;8347;52.486;13.432;2023-03-08T03:25:54;16.90;;;8.43;;
16472;SDS011;8347;52.486;13.432;2023-03-08T03:28:41;17.63;;;8.52;;
16472;SDS011;8347;52.486;13.432;2023-03-08T03:31:29;15.15;;;8.55;;
16472;SDS011;8347;52.486;13.432;2023-03-08T03:34:16;14.23;;;8.38;;
16472;SDS011;8347;52.486;13.432;2023-03-08T03:37:04;14.02;;;8.55;;
16472;SDS011;8347;52.486;13.432;2023-03-08T03:39:51;15.65;;;9.77;;
16472;SDS011;8347;52.486;13.432;2023-03-08T03:42:39;14.95;;;8.38;;
16472;SDS011;8347;52.486;13.432;2023-03-08T03:45:30;15.82;;;9.05;;
16472;SDS011;8347;52.486;13.432;2023-03-08T03:48:17;15.18;;;8.65;;
16472;SDS011;8347;52.486;13.432;2023-03-08T03:51:04;16.30;;;8.60;;
16472;SDS011;8347;52.486;13.432;2023-03-08T03:53:51;14.95;;;8.80;;
16472;SDS011;8347;52.486;13.432;2023-03-08T03:56:40;13.13;;;8.13;;
16472;SDS011;8347;52.486;13.432;2023-03-08T03:59:27;14.68;;;8.35;;
16472;SDS011;8347;52.486;13.432;2023-03-08T04:02:13;16.95;;;10.73;;
16472;SDS011;8347;52.486;13.432;2023-03-08T04:05:08;16.35;;;8.48;;
16472;SDS011;8347;52.486;13.432;2023-03-08T04:07:57;14.40;;;8.45;;
16472;SDS011;8347;52.486;13.432;2023-03-08T04:10:47;15.38;;;7.68;;
16472;SDS011;8347;52.486;13.432;2023-03-08T04:13:34;12.20;;;7.97;;
16472;SDS011;8347;52.486;13.432;2023-03-08T04:16:22;13.35;;;7.68;;
16472;SDS011;8347;52.486;13.432;2023-03-08T04:19:11;19.20;;;8.70;;
16472;SDS011;8347;52.486;13.432;2023-03-08T04:22:05;17.60;;;8.88;;
16472;SDS011;8347;52.486;13.432;2023-03-08T04:24:58;15.55;;;8.90;;
16472;SDS011;8347;52.486;13.432;2023-03-08T04:27:53;15.65;;;7.40;;
16472;SDS011;8347;52.486;13.432;2023-03-08T04:30:41;10.98;;;7.07;;
16472;SDS011;8347;52.486;13.432;2023-03-08T04:33:27;17.95;;;8.85;;
16472;SDS011;8347;52.486;13.432;2023-03-08T04:36:14;20.00;;;8.98;;
16472;SDS011;8347;52.486;13.432;2023-03-08T04:39:02;15.02;;;8.35;;
16472;SDS011;8347;52.486;13.432;2023-03-08T04:41:50;12.82;;;8.35;;
16472;SDS011;8347;52.486;13.432;2023-03-08T04:44:46;15.27;;;7.82;;
16472;SDS011;8347;52.486;13.432;2023-03-08T04:47:37;13.75;;;8.32;;
16472;SDS011;8347;52.486;13.432;2023-03-08T04:50:24;11.65;;;7.05;;
16472;SDS011;8347;52.486;13.432;2023-03-08T04:53:14;16.15;;;8.25;;
16472;SDS011;8347;52.486;13.432;2023-03-08T04:56:01;13.85;;;8.68;;
16472;SDS011;8347;52.486;13.432;2023-03-08T04:58:48;13.45;;;8.32;;
16472;SDS011;8347;52.486;13.432;2023-03-08T05:01:39;11.50;;;7.65;;
16472;SDS011;8347;52.486;13.432;2023-03-08T05:04:27;15.48;;;7.20;;
16472;SDS011;8347;52.486;13.432;2023-03-08T05:07:14;13.15;;;7.95;;
16472;SDS011;8347;52.486;13.432;2023-03-08T05:10:01;12.32;;;6.95;;
16472;SDS011;8347;52.486;13.432;2023-03-08T05:12:48;10.88;;;7.30;;
16472;SDS011;8347;52.486;13.432;2023-03-08T05:15:36;15.20;;;7.43;;
16472;SDS011;8347;52.486;13.432;2023-03-08T05:18:23;14.18;;;7.20;;
16472;SDS011;8347;52.486;13.432;2023-03-08T05:21:10;13.52;;;7.47;;
16472;SDS011;8347;52.486;13.432;2023-03-08T05:24:00;12.70;;;8.88;;
16472;SDS011;8347;52.486;13.432;2023-03-08T05:26:51;11.30;;;8.63;;
16472;SDS011;8347;52.486;13.432;2023-03-08T05:29:38;12.40;;;7.15;;
16472;SDS011;8347;52.486;13.432;2023-03-08T05:32:25;13.07;;;7.88;;
16472;SDS011;8347;52.486;13.432;2023-03-08T05:35:12;17.33;;;7.57;;
16472;SDS011;8347;52.486;13.432;2023-03-08T05:37:59;13.27;;;7.45;;
16472;SDS011;8347;52.486;13.432;2023-03-08T05:40:46;15.60;;;8.35;;
16472;SDS011;8347;52.486;13.432;2023-03-08T05:43:34;15.52;;;7.50;;
16472;SDS011;8347;52.486;13.432;2023-03-08T05:46:22;15.38;;;8.85;;
16472;SDS011;8347;52.486;13.432;2023-03-08T05:49:08;15.23;;;8.52;;
16472;SDS011;8347;52.486;13.432;2023-03-08T05:51:56;13.30;;;8.00;;
16472;SDS011;8347;52.486;13.432;2023-03-08T05:54:44;14.50;;;8.80;;
16472;SDS011;8347;52.486;13.432;2023-03-08T05:57:35;12.98;;;8.48;;
16472;SDS011;8347;52.486;13.432;2023-03-08T06:00:22;11.90;;;8.63;;
16472;SDS011;8347;52.486;13.432;2023-03-08T06:03:14;15.63;;;8.50;;
16472;SDS011;8347;52.486;13.432;2023-03-08T06:06:03;16.13;;;9.13;;
16472;SDS011;8347;52.486;13.432;2023-03-08T06:08:50;15.43;;;7.70;;
16472;SDS011;8347;52.486;13.432;2023-03-08T06:11:37;12.85;;;8.25;;
16472;SDS011;8347;52.486;13.432;2023-03-08T06:14:24;16.15;;;9.63;;
16472;SDS011;8347;52.486;13.432;2023-03-08T06:17:12;11.20;;;7.10;;
16472;SDS011;8347;52.486;13.432;2023-03-08T06:20:02;13.23;;;6.88;;
16472;SDS011;8347;52.486;13.432;2023-03-08T06:22:51;12.73;;;8.52;;
16472;SDS011;8347;52.486;13.432;2023-03-08T06:25:38;13.95;;;8.40;;
16472;SDS011;8347;52.486;13.432;2023-03-08T06:28:25;12.75;;;8.10;;
16472;SDS011;8347;52.486;13.432;2023-03-08T06:31:13;18.20;;;10.95;;
16472;SDS011;8347;52.486;13.432;2023-03-08T06:34:00;17.98;;;9.40;;
16472;SDS011;8347;52.486;13.432;2023-03-08T06:36:47;13.52;;;8.35;;
16472;SDS011;8347;52.486;13.432;2023-03-08T06:39:34;16.02;;;9.27;;
16472;SDS011;8347;52.486;13.432;2023-03-08T06:42:21;13.80;;;8.43;;
16472;SDS011;8347;52.486;13.432;2023-03-08T06:45:08;18.48;;;11.40;;
16472;SDS011;8347;52.486;13.432;2023-03-08T06:47:55;12.52;;;7.57;;
16472;SDS011;8347;52.486;13.432;2023-03-08T06:50:42;11.98;;;8.75;;
16472;SDS011;8347;52.486;13.432;2023-03-08T06:53:29;13.10;;;7.72;;
16472;SDS011;8347;52.486;13.432;2023-03-08T06:56:20;13.07;;;7.85;;
16472;SDS011;8347;52.486;13.432;2023-03-08T06:59:07;15.35;;;8.98;;
16472;SDS011;8347;52.486;13.432;2023-03-08T07:01:53;18.63;;;9.95;;
16472;SDS011;8347;52.486;13.432;2023-03-08T07:04:40;12.80;;;7.43;;
16472;SDS011;8347;52.486;13.432;2023-03-08T07:07:27;15.45;;;7.88;;
16472;SDS011;8347;52.486;13.432;2023-03-08T07:10:14;12.35;;;8.32;;
16472;SDS011;8347;52.486;13.432;2023-03-08T07:13:04;14.38;;;8.25;;
16472;SDS011;8347;52.486;13.432;2023-03-08T07:15:50;14.90;;;8.27;;
16472;SDS011;8347;52.486;13.432;2023-03-08T07:18:37;12.23;;;8.25;;
16472;SDS011;8347;52.486;13.432;2023-03-08T07:21:24;14.30;;;7.82;;
16472;SDS011;8347;52.486;13.432;2023-03-08T07:24:10;12.63;;;7.28;;
16472;SDS011;8347;52.486;13.432;2023-03-08T07:26:57;12.60;;;8.02;;
16472;SDS011;8347;52.486;13.432;2023-03-08T07:29:44;9.75;;;6.80;;
16472;SDS011;8347;52.486;13.432;2023-03-08T07:32:30;13.38;;;8.18;;
16472;SDS011;8347;52.486;13.432;2023-03-08T07:35:17;14.57;;;8.43;;
16472;SDS011;8347;52.486;13.432;2023-03-08T07:38:04;13.13;;;8.50;;
16472;SDS011;8347;52.486;13.432;2023-03-08T07:40:54;10.63;;;6.95;;
16472;SDS011;8347;52.486;13.432;2023-03-08T07:43:41;10.35;;;7.13;;
16472;SDS011;8347;52.486;13.432;2023-03-08T07:46:32;15.95;;;6.90;;
16472;SDS011;8347;52.486;13.432;2023-03-08T07:49:19;13.05;;;7.43;;
16472;SDS011;8347;52.486;13.432;2023-03-08T07:52:05;10.30;;;7.30;;
16472;SDS011;8347;52.486;13.432;2023-03-08T07:54:52;13.07;;;8.05;;
16472;SDS011;8347;52.486;13.432;2023-03-08T07:57:39;17.52;;;8.75;;
16472;SDS011;8347;52.486;13.432;2023-03-08T08:00:25;12.77;;;8.73;;
16472;SDS011;8347;52.486;13.432;2023-03-08T08:03:12;14.55;;;8.23;;
16472;SDS011;8347;52.486;13.432;2023-03-08T08:06:03;13.05;;;8.40;;
16472;SDS011;8347;52.486;13.432;2023-03-08T08:08:50;14.10;;;8.75;;
16472;SDS011;8347;52.486;13.432;2023-03-08T08:11:37;12.88;;;8.63;;
16472;SDS011;8347;52.486;13.432;2023-03-08T08:14:24;12.35;;;8.18;;
16472;SDS011;8347;52.486;13.432;2023-03-08T08:17:11;16.00;;;8.38;;
16472;SDS011;8347;52.486;13.432;2023-03-08T08:19:57;11.95;;;8.50;;
16472;SDS011;8347;52.486;13.432;2023-03-08T08:22:44;13.90;;;8.73;;
16472;SDS011;8347;52.486;13.432;2023-03-08T08:25:31;16.70;;;8.90;;
16472;SDS011;8347;52.486;13.432;2023-03-08T08:28:17;16.50;;;9.57;;
16472;SDS011;8347;52.486;13.432;2023-03-08T08:31:05;13.93;;;9.15;;
16472;SDS011;8347;52.486;13.432;2023-03-08T08:33:52;13.98;;;9.50;;
16472;SDS011;8347;52.486;13.432;2023-03-08T08:36:38;14.95;;;9.60;;
16472;SDS011;8347;52.486;13.432;2023-03-08T08:39:25;14.43;;;8.77;;
16472;SDS011;8347;52.486;13.432;2023-03-08T08:42:12;14.77;;;8.85;;
16472;SDS011;8347;52.486;13.432;2023-03-08T08:44:58;12.65;;;8.15;;
16472;SDS011;8347;52.486;13.432;2023-03-08T08:47:45;15.18;;;8.23;;
16472;SDS011;8347;52.486;13.432;2023-03-08T08:50:32;11.95;;;8.13;;
16472;SDS011;8347;52.486;13.432;2023-03-08T08:53:18;12.10;;;7.03;;
16472;SDS011;8347;52.486;13.432;2023-03-08T08:56:24;11.40;;;7.38;;
16472;SDS011;8347;52.486;13.432;2023-03-08T08:59:11;10.80;;;7.05;;
16472;SDS011;8347;52.486;13.432;2023-03-08T09:01:57;8.98;;;6.95;;
16472;SDS011;8347;52.486;13.432;2023-03-08T09:04:44;11.70;;;7.28;;
16472;SDS011;8347;52.486;13.432;2023-03-08T09:07:31;11.00;;;7.60;;
16472;SDS011;8347;52.486;13.432;2023-03-08T09:10:17;10.18;;;6.50;;
16472;SDS011;8347;52.486;13.432;2023-03-08T09:13:04;6.85;;;5.75;;
16472;SDS011;8347;52.486;13.432;2023-03-08T09:15:51;9.32;;;6.30;;
16472;SDS011;8347;52.486;13.432;2023-03-08T09:18:37;12.50;;;5.80;;
16472;SDS011;8347;52.486;13.432;2023-03-08T09:21:25;10.10;;;5.35;;
16472;SDS011;8347;52.486;13.432;2023-03-08T09:24:12;6.80;;;4.90;;
16472;SDS011;8347;52.486;13.432;2023-03-08T09:26:59;6.68;;;4.43;;
16472;SDS011;8347;52.486;13.432;2023-03-08T09:29:46;9.13;;;5.75;;
16472;SDS011;8347;52.486;13.432;2023-03-08T09:32:32;12.45;;;8.45;;
16472;SDS011;8347;52.486;13.432;2023-03-08T09:35:19;9.23;;;5.55;;
16472;SDS011;8347;52.486;13.432;2023-03-08T09:38:06;7.13;;;4.72;;
16472;SDS011;8347;52.486;13.432;2023-03-08T09:44:12;7.90;;;5.13;;
16472;SDS011;8347;52.486;13.432;2023-03-08T09:47:04;6.22;;;5.10;;
16472;SDS011;8347;52.486;13.432;2023-03-08T09:49:52;7.47;;;4.72;;
16472;SDS011;8347;52.486;13.432;2023-03-08T09:55:54;9.43;;;6.03;;
16472;SDS011;8347;52.486;13.432;2023-03-08T09:58:43;8.30;;;5.25;;
16472;SDS011;8347;52.486;13.432;2023-03-08T10:01:35;7.63;;;5.60;;
16472;SDS011;8347;52.486;13.432;2023-03-08T10:04:27;7.95;;;5.07;;
16472;SDS011;8347;52.486;13.432;2023-03-08T10:07:21;7.38;;;4.88;;
16472;SDS011;8347;52.486;13.432;2023-03-08T10:13:06;14.70;;;7.78;;
16472;SDS011;8347;52.486;13.432;2023-03-08T10:21:51;8.48;;;6.18;;
16472;SDS011;8347;52.486;13.432;2023-03-08T10:24:44;8.73;;;5.55;;
16472;SDS011;8347;52.486;13.432;2023-03-08T10:27:35;4.95;;;3.97;;
16472;SDS011;8347;52.486;13.432;2023-03-08T10:30:23;8.60;;;4.65;;
16472;SDS011;8347;52.486;13.432;2023-03-08T10:33:12;8.90;;;4.45;;
16472;SDS011;8347;52.486;13.432;2023-03-08T10:41:47;9.35;;;5.90;;
16472;SDS011;8347;52.486;13.432;2023-03-08T10:44:38;9.10;;;5.95;;
16472;SDS011;8347;52.486;13.432;2023-03-08T10:47:28;7.40;;;4.00;;
16472;SDS011;8347;52.486;13.432;2023-03-08T10:50:20;5.53;;;3.90;;
16472;SDS011;8347;52.486;13.432;2023-03-08T10:53:17;5.25;;;4.03;;
16472;SDS011;8347;52.486;13.432;2023-03-08T10:56:15;4.85;;;3.95;;
16472;SDS011;8347;52.486;13.432;2023-03-08T10:59:12;4.22;;;3.40;;
16472;SDS011;8347;52.486;13.432;2023-03-08T11:02:07;5.53;;;3.15;;
16472;SDS011;8347;52.486;13.432;2023-03-08T11:05:01;7.40;;;3.95;;
16472;SDS011;8347;52.486;13.432;2023-03-08T11:07:51;12.55;;;7.93;;
16472;SDS011;8347;52.486;13.432;2023-03-08T11:10:38;10.38;;;5.28;;
16472;SDS011;8347;52.486;13.432;2023-03-08T11:13:27;8.70;;;5.80;;
16472;SDS011;8347;52.486;13.432;2023-03-08T11:19:18;5.07;;;3.65;;
16472;SDS011;8347;52.486;13.432;2023-03-08T11:28:14;6.35;;;3.38;;
16472;SDS011;8347;52.486;13.432;2023-03-08T11:31:16;5.07;;;3.10;;
16472;SDS011;8347;52.486;13.432;2023-03-08T11:37:31;8.20;;;4.70;;
16472;SDS011;8347;52.486;13.432;2023-03-08T11:40:20;8.82;;;3.97;;
16472;SDS011;8347;52.486;13.432;2023-03-08T11:46:20;8.35;;;3.65;;
16472;SDS011;8347;52.486;13.432;2023-03-08T11:49:12;5.13;;;3.63;;
16472;SDS011;8347;52.486;13.432;2023-03-08T11:58:21;8.82;;;4.85;;
16472;SDS011;8347;52.486;13.432;2023-03-08T12:01:17;6.45;;;4.07;;
16472;SDS011;8347;52.486;13.432;2023-03-08T12:04:12;13.38;;;4.85;;
16472;SDS011;8347;52.486;13.432;2023-03-08T12:07:05;4.45;;;3.70;;
16472;SDS011;8347;52.486;13.432;2023-03-08T12:10:14;7.57;;;3.83;;
16472;SDS011;8347;52.486;13.432;2023-03-08T12:13:05;6.43;;;2.80;;
16472;SDS011;8347;52.486;13.432;2023-03-08T12:19:19;6.95;;;4.88;;
16472;SDS011;8347;52.486;13.432;2023-03-08T12:30:55;5.10;;;3.85;;
16472;SDS011;8347;52.486;13.432;2023-03-08T12:33:43;6.78;;;4.53;;
16472;SDS011;8347;52.486;13.432;2023-03-08T12:36:37;5.80;;;3.35;;
16472;SDS011;8347;52.486;13.432;2023-03-08T12:39:29;7.75;;;3.67;;
16472;SDS011;8347;52.486;13.432;2023-03-08T12:45:27;5.18;;;4.07;;
16472;SDS011;8347;52.486;13.432;2023-03-08T12:48:19;10.68;;;4.95;;
16472;SDS011;8347;52.486;13.432;2023-03-08T12:53:58;9.05;;;5.15;;
16472;SDS011;8347;52.486;13.432;2023-03-08T12:56:52;5.03;;;3.95;;
16472;SDS011;8347;52.486;13.432;2023-03-08T12:59:39;6.53;;;3.25;;
16472;SDS011;8347;52.486;13.432;2023-03-08T13:02:28;6.35;;;4.03;;
16472;SDS011;8347;52.486;13.432;2023-03-08T13:11:05;8.25;;;3.80;;
16472;SDS011;8347;52.486;13.432;2023-03-08T13:13:55;3.60;;;3.22;;
16472;SDS011;8347;52.486;13.432;2023-03-08T13:16:42;6.88;;;4.95;;
16472;SDS011;8347;52.486;13.432;2023-03-08T13:19:29;6.95;;;4.60;;
16472;SDS011;8347;52.486;13.432;2023-03-08T13:22:24;8.38;;;5.57;;
16472;SDS011;8347;52.486;13.432;2023-03-08T13:25:20;5.88;;;4.88;;
16472;SDS011;8347;52.486;13.432;2023-03-08T13:28:15;10.45;;;6.38;;
16472;SDS011;8347;52.486;13.432;2023-03-08T13:31:17;12.00;;;6.55;;
16472;SDS011;8347;52.486;13.432;2023-03-08T13:34:04;9.98;;;6.28;;
16472;SDS011;8347;52.486;13.432;2023-03-08T13:36:51;9.73;;;6.38;;
16472;SDS011;8347;52.486;13.432;2023-03-08T13:39:38;10.50;;;6.28;;
16472;SDS011;8347;52.486;13.432;2023-03-08T13:42:25;7.28;;;4.13;;
16472;SDS011;8347;52.486;13.432;2023-03-08T13:45:15;5.75;;;4.32;;
16472;SDS011;8347;52.486;13.432;2023-03-08T13:48:05;7.45;;;4.13;;
16472;SDS011;8347;52.486;13.432;2023-03-08T13:50:52;6.97;;;4.97;;
16472;SDS011;8347;52.486;13.432;2023-03-08T13:53:40;7.78;;;5.43;;
16472;SDS011;8347;52.486;13.432;2023-03-08T13:56:28;7.03;;;5.00;;
16472;SDS011;8347;52.486;13.432;2023-03-08T13:59:16;8.48;;;5.03;;
16472;SDS011;8347;52.486;13.432;2023-03-08T14:02:24;8.95;;;5.68;;
16472;SDS011;8347;52.486;13.432;2023-03-08T14:05:18;10.23;;;6.07;;
16472;SDS011;8347;52.486;13.432;2023-03-08T14:08:16;7.22;;;5.32;;
16472;SDS011;8347;52.486;13.432;2023-03-08T14:11:04;9.07;;;5.63;;
16472;SDS011;8347;52.486;13.432;2023-03-08T14:13:53;10.85;;;6.90;;
16472;SDS011;8347;52.486;13.432;2023-03-08T14:16:40;10.02;;;5.90;;
16472;SDS011;8347;52.486;13.432;2023-03-08T14:19:28;7.93;;;5.85;;
16472;SDS011;8347;52.486;13.432;2023-03-08T14:22:16;9.30;;;5.70;;
16472;SDS011;8347;52.486;13.432;2023-03-08T14:25:03;7.95;;;5.45;;
16472;SDS011;8347;52.486;13.432;2023-03-08T14:27:50;7.85;;;5.25;;
16472;SDS011;8347;52.486;13.432;2023-03-08T14:30:44;9.23;;;5.13;;
16472;SDS011;8347;52.486;13.432;2023-03-08T14:33:33;14.65;;;6.70;;
16472;SDS011;8347;52.486;13.432;2023-03-08T14:36:20;7.70;;;5.60;;
16472;SDS011;8347;52.486;13.432;2023-03-08T14:39:14;7.80;;;5.80;;
16472;SDS011;8347;52.486;13.432;2023-03-08T14:45:18;11.15;;;6.75;;
16472;SDS011;8347;52.486;13.432;2023-03-08T14:48:40;10.43;;;6.47;;
16472;SDS011;8347;52.486;13.432;2023-03-08T14:54:18;11.98;;;6.65;;
16472;SDS011;8347;52.486;13.432;2023-03-08T14:57:15;12.45;;;7.43;;
16472;SDS011;8347;52.486;13.432;2023-03-08T15:00:05;14.30;;;8.18;;
16472;SDS011;8347;52.486;13.432;2023-03-08T15:02:54;13.48;;;8.52;;
16472;SDS011;8347;52.486;13.432;2023-03-08T15:05:44;15.00;;;8.63;;
16472;SDS011;8347;52.486;13.432;2023-03-08T15:08:31;15.60;;;8.25;;
16472;SDS011;8347;52.486;13.432;2023-03-08T15:11:17;13.77;;;8.00;;
16472;SDS011;8347;52.486;13.432;2023-03-08T15:14:04;12.65;;;7.93;;
16472;SDS011;8347;52.486;13.432;2023-03-08T15:16:50;16.35;;;9.70;;
16472;SDS011;8347;52.486;13.432;2023-03-08T15:19:39;15.73;;;8.65;;
16472;SDS011;8347;52.486;13.432;2023-03-08T15:22:26;11.55;;;6.93;;
16472;SDS011;8347;52.486;13.432;2023-03-08T15:25:33;9.68;;;7.00;;
16472;SDS011;8347;52.486;13.432;2023-03-08T15:28:21;11.43;;;7.80;;
16472;SDS011;8347;52.486;13.432;2023-03-08T15:31:08;12.88;;;7.03;;
16472;SDS011;8347;52.486;13.432;2023-03-08T15:33:54;17.00;;;8.10;;
16472;SDS011;8347;52.486;13.432;2023-03-08T15:36:41;14.73;;;8.15;;
16472;SDS011;8347;52.486;13.432;2023-03-08T15:39:28;13.57;;;7.82;;
16472;SDS011;8347;52.486;13.432;2023-03-08T15:42:14;21.92;;;9.10;;
16472;SDS011;8347;52.486;13.432;2023-03-08T15:45:00;16.27;;;9.20;;
16472;SDS011;8347;52.486;13.432;2023-03-08T15:47:57;21.55;;;11.00;;
16472;SDS011;8347;52.486;13.432;2023-03-08T15:50:44;16.75;;;10.85;;
16472;SDS011;8347;52.486;13.432;2023-03-08T15:53:31;23.15;;;13.32;;
16472;SDS011;8347;52.486;13.432;2023-03-08T15:56:17;20.13;;;10.75;;
16472;SDS011;8347;52.486;13.432;2023-03-08T15:59:03;17.73;;;10.73;;
16472;SDS011;8347;52.486;13.432;2023-03-08T16:01:50;18.48;;;10.70;;
16472;SDS011;8347;52.486;13.432;2023-03-08T16:04:37;18.30;;;9.68;;
16472;SDS011;8347;52.486;13.432;2023-03-08T16:07:23;18.30;;;10.43;;
16472;SDS011;8347;52.486;13.432;2023-03-08T16:10:11;16.40;;;9.90;;
16472;SDS011;8347;52.486;13.432;2023-03-08T16:12:58;13.93;;;8.07;;
16472;SDS011;8347;52.486;13.432;2023-03-08T16:15:45;19.67;;;10.10;;
16472;SDS011;8347;52.486;13.432;2023-03-08T16:18:31;14.63;;;9.15;;
16472;SDS011;8347;52.486;13.432;2023-03-08T16:21:18;16.13;;;9.88;;
16472;SDS011;8347;52.486;13.432;2023-03-08T16:24:05;20.17;;;11.18;;
16472;SDS011;8347;52.486;13.432;2023-03-08T16:26:51;15.88;;;8.77;;
16472;SDS011;8347;52.486;13.432;2023-03-08T16:29:38;14.82;;;7.68;;
16472;SDS011;8347;52.486;13.432;2023-03-08T16:32:24;12.88;;;7.65;;
16472;SDS011;8347;52.486;13.432;2023-03-08T16:35:11;12.57;;;8.18;;
16472;SDS011;8347;52.486;13.432;2023-03-08T16:37:57;11.45;;;7.25;;
16472;SDS011;8347;52.486;13.432;2023-03-08T16:40:44;13.00;;;7.30;;
16472;SDS011;8347;52.486;13.432;2023-03-08T16:43:31;15.98;;;8.77;;
16472;SDS011;8347;52.486;13.432;2023-03-08T16:46:18;12.95;;;7.57;;
16472;SDS011;8347;52.486;13.432;2023-03-08T16:49:05;15.32;;;9.05;;
16472;SDS011;8347;52.486;13.432;2023-03-08T16:51:55;16.27;;;8.63;;
16472;SDS011;8347;52.486;13.432;2023-03-08T16:54:42;17.02;;;10.07;;
16472;SDS011;8347;52.486;13.432;2023-03-08T16:57:29;17.42;;;9.85;;
16472;SDS011;8347;52.486;13.432;2023-03-08T17:00:16;15.75;;;8.90;;
16472;SDS011;8347;52.486;13.432;2023-03-08T17:03:03;12.73;;;7.40;;
16472;SDS011;8347;52.486;13.432;2023-03-08T17:05:49;20.08;;;9.70;;
16472;SDS011;8347;52.486;13.432;2023-03-08T17:08:36;17.25;;;8.55;;
16472;SDS011;8347;52.486;13.432;2023-03-08T17:11:24;12.65;;;7.55;;
16472;SDS011;8347;52.486;13.432;2023-03-08T17:14:11;13.05;;;6.93;;
16472;SDS011;8347;52.486;13.432;2023-03-08T17:16:59;14.27;;;7.00;;
16472;SDS011;8347;52.486;13.432;2023-03-08T17:19:49;11.85;;;6.50;;
16472;SDS011;8347;52.486;13.432;2023-03-08T17:22:36;10.20;;;5.20;;
16472;SDS011;8347;52.486;13.432;2023-03-08T17:25:23;13.82;;;7.75;;
16472;SDS011;8347;52.486;13.432;2023-03-08T17:28:10;15.30;;;7.25;;
16472;SDS011;8347;52.486;13.432;2023-03-08T17:30:57;13.23;;;7.38;;
16472;SDS011;8347;52.486;13.432;2023-03-08T17:33:43;11.63;;;6.95;;
16472;SDS011;8347;52.486;13.432;2023-03-08T17:36:30;14.82;;;8.07;;
16472;SDS011;8347;52.486;13.432;2023-03-08T17:39:17;12.40;;;7.40;;
16472;SDS011;8347;52.486;13.432;2023-03-08T17:42:04;16.58;;;8.23;;
16472;SDS011;8347;52.486;13.432;2023-03-08T17:44:50;15.75;;;7.82;;
16472;SDS011;8347;52.486;13.432;2023-03-08T17:47:37;13.75;;;7.68;;
16472;SDS011;8347;52.486;13.432;2023-03-08T17:50:23;15.02;;;7.18;;
16472;SDS011;8347;52.486;13.432;2023-03-08T17:53:10;14.30;;;7.65;;
16472;SDS011;8347;52.486;13.432;2023-03-08T17:55:57;14.15;;;7.43;;
16472;SDS011;8347;52.486;13.432;2023-03-08T17:58:47;14.05;;;6.90;;